createdAt,value
2019-05-22T00:01:22.998Z,14.60
2019-05-22T00:03:58.865Z,14.50
2019-05-22T00:06:41.739Z,14.50
2019-05-22T00:09:21.373Z,14.50
2019-05-22T00:11:56.486Z,14.40
2019-05-22T00:14:32.629Z,14.40
2019-05-22T00:17:09.639Z,14.30
2019-05-22T00:19:44.265Z,14.30
2019-05-22T00:22:20.297Z,14.30
2019-05-22T00:24:56.201Z,14.20
2019-05-22T00:27:32.430Z,14.20
2019-05-22T00:30:11.903Z,14.20
2019-05-22T00:32:47.592Z,14.20
2019-05-22T00:35:25.350Z,14.10
2019-05-22T00:38:01.442Z,14.10
2019-05-22T00:40:37.950Z,14.10
2019-05-22T00:43:17.035Z,14.10
2019-05-22T00:45:52.263Z,14.10
2019-05-22T00:48:26.427Z,14.00
2019-05-22T00:51:07.824Z,13.90
2019-05-22T00:53:49.968Z,13.80
2019-05-22T00:56:44.513Z,13.80
2019-05-22T00:59:22.151Z,13.70
2019-05-22T01:02:04.251Z,13.70
2019-05-22T01:04:42.305Z,13.70
2019-05-22T01:07:17.420Z,13.70
2019-05-22T01:09:59.131Z,13.70
2019-05-22T01:12:36.471Z,13.70
2019-05-22T01:15:14.345Z,13.70
2019-05-22T01:17:49.987Z,13.70
2019-05-22T01:20:28.514Z,13.70
2019-05-22T01:23:03.153Z,13.60
2019-05-22T01:25:38.961Z,13.60
2019-05-22T01:28:16.027Z,13.60
2019-05-22T01:30:58.684Z,13.60
2019-05-22T01:33:35.086Z,13.60
2019-05-22T01:36:11.361Z,13.50
2019-05-22T01:38:45.537Z,13.50
2019-05-22T01:41:28.306Z,13.50
2019-05-22T01:44:05.875Z,13.40
2019-05-22T01:46:43.468Z,13.40
2019-05-22T01:49:18.735Z,13.40
2019-05-22T01:51:54.158Z,13.40
2019-05-22T01:54:28.582Z,13.40
2019-05-22T01:57:05.222Z,13.40
2019-05-22T01:59:41.610Z,13.30
2019-05-22T02:02:17.554Z,13.20
2019-05-22T02:04:53.049Z,13.20
2019-05-22T02:07:29.080Z,13.20
2019-05-22T02:10:07.565Z,13.20
2019-05-22T02:12:50.822Z,13.20
2019-05-22T02:15:27.602Z,13.20
2019-05-22T02:18:07.063Z,13.20
2019-05-22T02:20:42.001Z,13.10
2019-05-22T02:23:17.011Z,13.10
2019-05-22T02:25:52.322Z,13.00
2019-05-22T02:28:27.919Z,13.00
2019-05-22T02:31:04.238Z,13.10
2019-05-22T02:33:56.534Z,13.10
2019-05-22T02:36:32.962Z,13.10
2019-05-22T02:39:18.397Z,13.00
2019-05-22T02:41:59.745Z,13.10
2019-05-22T02:44:35.595Z,13.10
2019-05-22T02:47:18.747Z,13.00
2019-05-22T02:49:50.270Z,13.10
2019-05-22T02:52:25.342Z,13.00
2019-05-22T02:54:59.916Z,13.00
2019-05-22T02:57:35.080Z,13.00
2019-05-22T03:00:12.662Z,13.00
2019-05-22T03:02:52.425Z,13.00
2019-05-22T03:05:28.291Z,13.00
2019-05-22T03:08:04.133Z,13.00
2019-05-22T03:10:38.840Z,13.00
2019-05-22T03:13:15.920Z,13.00
2019-05-22T03:15:50.857Z,13.00
2019-05-22T03:18:25.430Z,13.00
2019-05-22T03:20:59.674Z,13.00
2019-05-22T03:23:36.456Z,13.00
2019-05-22T03:26:13.299Z,13.00
2019-05-22T03:28:48.193Z,12.90
2019-05-22T03:31:22.398Z,12.90
2019-05-22T03:33:56.798Z,12.90
2019-05-22T03:36:31.608Z,12.90
2019-05-22T03:39:07.943Z,12.90
2019-05-22T03:41:42.809Z,12.90
2019-05-22T03:44:19.912Z,12.90
2019-05-22T03:46:59.086Z,12.80
2019-05-22T03:49:31.566Z,12.80
2019-05-22T03:52:06.749Z,12.80
2019-05-22T03:54:42.831Z,12.80
2019-05-22T03:57:17.183Z,12.80
2019-05-22T03:59:51.414Z,12.80
2019-05-22T04:02:26.548Z,12.80
2019-05-22T04:05:00.890Z,12.70
2019-05-22T04:07:36.830Z,12.60
2019-05-22T04:10:13.510Z,12.70
2019-05-22T04:12:50.205Z,12.70
2019-05-22T04:15:26.294Z,12.60
2019-05-22T04:18:15.104Z,12.50
2019-05-22T04:20:49.597Z,12.60
2019-05-22T04:23:24.487Z,12.50
2019-05-22T04:26:00.628Z,12.50
2019-05-22T04:28:36.746Z,12.50
2019-05-22T04:31:11.725Z,12.50
2019-05-22T04:33:46.404Z,12.50
2019-05-22T04:36:21.602Z,12.50
2019-05-22T04:38:55.987Z,12.50
2019-05-22T04:41:30.906Z,12.50
2019-05-22T04:44:06.248Z,12.50
2019-05-22T04:46:41.433Z,12.50
2019-05-22T04:49:16.437Z,12.50
2019-05-22T04:51:52.214Z,12.40
2019-05-22T04:54:26.636Z,12.40
2019-05-22T04:57:01.713Z,12.40
2019-05-22T04:59:36.454Z,12.30
2019-05-22T05:02:13.475Z,12.20
2019-05-22T05:04:47.929Z,12.30
2019-05-22T05:07:23.958Z,12.30
2019-05-22T05:09:59.335Z,12.30
2019-05-22T05:12:34.242Z,12.20
2019-05-22T05:15:09.127Z,12.20
2019-05-22T05:17:43.822Z,12.30
2019-05-22T05:20:22.406Z,12.30
2019-05-22T05:22:54.558Z,12.20
2019-05-22T05:25:29.382Z,12.30
2019-05-22T05:28:05.258Z,12.30
2019-05-22T05:30:42.157Z,12.30
2019-05-22T05:33:16.860Z,12.30
2019-05-22T05:35:53.980Z,12.40
2019-05-22T05:38:34.400Z,12.50
2019-05-22T05:41:09.788Z,12.50
2019-05-22T05:43:44.008Z,12.60
2019-05-22T05:46:18.620Z,12.50
2019-05-22T05:48:54.707Z,12.50
2019-05-22T05:51:35.966Z,12.60
2019-05-22T05:54:12.805Z,12.60
2019-05-22T05:56:49.743Z,12.60
2019-05-22T05:59:26.392Z,12.60
2019-05-22T06:02:01.359Z,12.60
2019-05-22T06:04:38.005Z,12.50
2019-05-22T06:07:19.221Z,12.60
2019-05-22T06:09:58.738Z,12.60
2019-05-22T06:12:34.467Z,12.60
2019-05-22T06:15:09.740Z,12.70
2019-05-22T06:18:10.417Z,12.60
2019-05-22T06:21:02.486Z,12.60
2019-05-22T06:23:27.570Z,12.70
2019-05-22T06:26:02.359Z,12.80
2019-05-22T06:28:38.352Z,12.70
2019-05-22T06:31:24.396Z,12.80
2019-05-22T06:33:59.373Z,12.90
2019-05-22T06:36:34.192Z,12.90
2019-05-22T06:39:13.783Z,12.90
2019-05-22T06:41:49.224Z,13.00
2019-05-22T06:44:30.104Z,13.10
2019-05-22T06:47:06.447Z,13.10
2019-05-22T06:49:42.511Z,13.00
2019-05-22T06:52:17.001Z,13.00
2019-05-22T06:54:52.493Z,13.10
2019-05-22T06:57:29.588Z,13.00
2019-05-22T07:00:13.990Z,12.90
2019-05-22T07:02:43.679Z,12.80
2019-05-22T07:05:18.375Z,12.90
2019-05-22T07:07:52.649Z,12.90
2019-05-22T07:10:29.287Z,13.00
2019-05-22T07:13:03.476Z,13.00
2019-05-22T07:15:40.734Z,12.90
2019-05-22T07:18:16.201Z,13.00
2019-05-22T07:20:52.562Z,12.90
2019-05-22T07:23:27.777Z,12.80
2019-05-22T07:26:03.467Z,12.80
2019-05-22T07:28:38.820Z,12.70
2019-05-22T07:31:12.996Z,12.60
2019-05-22T07:33:50.659Z,12.60
2019-05-22T07:36:25.224Z,12.60
2019-05-22T07:39:00.440Z,12.60
2019-05-22T07:41:35.379Z,12.70
2019-05-22T07:44:09.971Z,12.70
2019-05-22T07:46:44.381Z,12.60
2019-05-22T07:49:19.203Z,12.60
2019-05-22T07:52:00.704Z,12.60
2019-05-22T07:54:30.131Z,12.70
2019-05-22T07:57:04.715Z,12.70
2019-05-22T07:59:39.457Z,12.60
2019-05-22T08:02:16.436Z,12.50
2019-05-22T08:04:51.209Z,12.50
2019-05-22T08:07:27.275Z,12.50
2019-05-22T08:10:01.857Z,12.50
2019-05-22T08:12:36.826Z,12.40
2019-05-22T08:15:12.513Z,12.40
2019-05-22T08:17:46.952Z,12.40
2019-05-22T08:20:22.086Z,12.40
2019-05-22T08:22:59.172Z,12.30
2019-05-22T08:25:33.793Z,12.40
2019-05-22T08:28:10.007Z,12.30
2019-05-22T08:30:44.870Z,12.40
2019-05-22T08:33:20.819Z,12.40
2019-05-22T08:35:56.029Z,12.40
2019-05-22T08:38:33.872Z,12.40
2019-05-22T08:41:09.174Z,12.40
2019-05-22T08:44:11.259Z,12.30
2019-05-22T08:46:20.425Z,12.20
2019-05-22T08:48:55.396Z,12.20
2019-05-22T08:51:29.714Z,12.30
2019-05-22T08:54:13.799Z,12.20
2019-05-22T08:56:49.755Z,12.20
2019-05-22T08:59:24.555Z,12.30
2019-05-22T09:01:59.510Z,12.20
2019-05-22T09:04:34.032Z,12.30
2019-05-22T09:07:08.409Z,12.30
2019-05-22T09:09:43.136Z,12.30
2019-05-22T09:12:18.186Z,12.30
2019-05-22T09:14:52.407Z,12.40
2019-05-22T09:17:26.968Z,12.30
2019-05-22T09:20:01.552Z,12.30
2019-05-22T09:22:41.058Z,12.30
2019-05-22T09:25:16.253Z,12.30
2019-05-22T09:27:52.379Z,12.20
2019-05-22T09:30:27.242Z,12.20
2019-05-22T09:33:03.380Z,12.30
2019-05-22T09:35:38.200Z,12.30
2019-05-22T09:38:12.385Z,12.30
2019-05-22T09:40:46.939Z,12.30
2019-05-22T09:43:21.451Z,12.20
2019-05-22T09:45:57.229Z,12.20
2019-05-22T09:48:33.056Z,12.30
2019-05-22T09:51:07.472Z,12.40
2019-05-22T09:53:43.336Z,12.40
2019-05-22T09:56:18.172Z,12.40
2019-05-22T09:58:53.784Z,12.40
2019-05-22T10:01:28.319Z,12.40
2019-05-22T10:04:03.512Z,12.50
2019-05-22T10:06:38.111Z,12.50
2019-05-22T10:09:12.407Z,12.60
2019-05-22T10:11:47.091Z,12.70
2019-05-22T10:14:21.922Z,12.70
2019-05-22T10:16:57.688Z,12.70
2019-05-22T10:19:32.030Z,12.80
2019-05-22T10:22:07.882Z,12.80
2019-05-22T10:24:44.535Z,12.80
2019-05-22T10:27:18.962Z,12.80
2019-05-22T10:29:55.723Z,12.80
2019-05-22T10:32:32.560Z,12.80
2019-05-22T10:35:08.591Z,12.90
2019-05-22T10:37:43.063Z,12.90
2019-05-22T10:40:18.050Z,12.80
2019-05-22T10:42:52.918Z,12.70
2019-05-22T10:45:27.640Z,12.80
2019-05-22T10:48:03.171Z,12.90
2019-05-22T10:50:37.499Z,12.90
2019-05-22T10:53:12.727Z,12.80
2019-05-22T10:55:47.546Z,12.60
2019-05-22T10:58:22.001Z,12.60
2019-05-22T11:00:56.435Z,12.50
2019-05-22T11:03:31.572Z,12.60
2019-05-22T11:06:07.757Z,12.50
2019-05-22T11:08:42.617Z,12.50
2019-05-22T11:11:17.623Z,12.50
2019-05-22T11:14:01.495Z,12.40
2019-05-22T11:16:30.038Z,12.30
2019-05-22T11:19:04.493Z,12.40
2019-05-22T11:21:41.703Z,12.40
2019-05-22T11:24:16.001Z,12.30
2019-05-22T11:26:50.675Z,12.30
2019-05-22T11:29:25.157Z,12.30
2019-05-22T11:31:59.700Z,12.30
2019-05-22T11:34:34.458Z,12.40
2019-05-22T11:37:09.198Z,12.50
2019-05-22T11:39:45.044Z,12.60
2019-05-22T11:42:19.855Z,12.60
2019-05-22T11:44:55.124Z,12.60
2019-05-22T11:47:29.453Z,12.60
2019-05-22T11:50:06.703Z,12.60
2019-05-22T11:52:42.073Z,12.70
2019-05-22T11:55:16.734Z,12.70
2019-05-22T11:57:51.776Z,12.60
2019-05-22T12:00:26.483Z,12.60
2019-05-22T12:03:01.472Z,12.50
2019-05-22T12:05:35.833Z,12.40
2019-05-22T12:08:13.460Z,12.40
2019-05-22T12:10:47.972Z,12.50
2019-05-22T12:13:22.612Z,12.50
2019-05-22T12:15:57.440Z,12.50
2019-05-22T12:18:32.758Z,12.50
2019-05-22T12:21:07.435Z,12.50
2019-05-22T12:23:44.444Z,12.60
2019-05-22T12:26:19.438Z,12.60
2019-05-22T12:28:53.728Z,12.60
2019-05-22T12:31:28.569Z,12.50
2019-05-22T12:34:03.192Z,12.50
2019-05-22T12:36:37.865Z,12.60
2019-05-22T12:39:13.430Z,12.50
2019-05-22T12:41:48.663Z,12.50
2019-05-22T12:44:23.684Z,12.60
2019-05-22T12:46:58.219Z,12.60
2019-05-22T12:49:32.757Z,12.60
2019-05-22T12:52:09.086Z,12.50
2019-05-22T12:54:48.423Z,12.50
2019-05-22T12:57:19.886Z,12.60
2019-05-22T12:59:54.636Z,12.60
2019-05-22T13:02:28.954Z,12.50
2019-05-22T13:05:04.175Z,12.60
2019-05-22T13:07:39.656Z,12.50
2019-05-22T13:10:15.088Z,12.50
2019-05-22T13:12:49.783Z,12.50
2019-05-22T13:15:25.214Z,12.40
2019-05-22T13:17:59.926Z,12.40
2019-05-22T13:20:43.343Z,12.50
2019-05-22T13:23:13.778Z,12.50
2019-05-22T13:25:48.833Z,12.50
2019-05-22T13:28:24.816Z,12.50
2019-05-22T13:31:00.711Z,12.50
2019-05-22T13:33:35.663Z,12.50
2019-05-22T13:36:11.479Z,12.60
2019-05-22T13:38:49.879Z,12.60
2019-05-22T13:41:24.234Z,12.60
2019-05-22T13:43:59.030Z,12.60
2019-05-22T13:46:35.993Z,12.60
2019-05-22T13:49:10.424Z,12.70
2019-05-22T13:51:44.777Z,12.70
2019-05-22T13:54:20.245Z,12.80
2019-05-22T13:56:54.527Z,12.90
2019-05-22T13:59:29.462Z,12.80
2019-05-22T14:02:04.207Z,13.00
2019-05-22T14:04:38.709Z,13.00
2019-05-22T14:07:13.105Z,13.10
2019-05-22T14:09:47.389Z,13.00
2019-05-22T14:12:21.950Z,13.00
2019-05-22T14:14:56.300Z,13.10
2019-05-22T14:17:30.507Z,13.00
2019-05-22T14:20:07.402Z,13.00
2019-05-22T14:22:41.921Z,12.90
2019-05-22T14:25:17.697Z,12.90
2019-05-22T14:27:52.290Z,12.90
2019-05-22T14:30:27.942Z,12.90
2019-05-22T14:33:04.797Z,12.90
2019-05-22T14:35:48.288Z,12.90
2019-05-22T14:38:16.426Z,13.00
2019-05-22T14:40:53.038Z,13.00
2019-05-22T14:43:28.717Z,13.00
2019-05-22T14:46:03.631Z,13.00
2019-05-22T14:48:39.520Z,13.10
2019-05-22T14:51:14.875Z,13.40
2019-05-22T14:53:50.119Z,13.30
2019-05-22T14:56:25.273Z,13.50
2019-05-22T14:59:00.024Z,13.70
2019-05-22T15:01:34.957Z,13.80
2019-05-22T15:04:09.679Z,13.90
2019-05-22T15:06:44.017Z,14.30
2019-05-22T15:09:18.465Z,14.20
2019-05-22T15:11:52.764Z,13.90
2019-05-22T15:14:27.289Z,13.70
2019-05-22T15:17:01.526Z,13.60
2019-05-22T15:19:36.415Z,13.70
2019-05-22T15:22:10.913Z,13.80
2019-05-22T15:24:45.905Z,13.80
2019-05-22T15:27:20.423Z,13.80
2019-05-22T15:29:56.008Z,13.80
2019-05-22T15:32:30.534Z,13.80
2019-05-22T15:35:06.833Z,13.80
2019-05-22T15:37:42.015Z,13.80
2019-05-22T15:40:16.725Z,13.70
2019-05-22T15:42:51.270Z,13.80
2019-05-22T15:45:27.438Z,13.80
2019-05-22T15:48:03.666Z,13.90
2019-05-22T15:50:38.930Z,13.90
2019-05-22T15:53:15.154Z,14.00
2019-05-22T15:55:50.766Z,14.20
2019-05-22T15:58:27.531Z,14.30
2019-05-22T16:01:04.688Z,14.20
2019-05-22T16:03:40.474Z,14.20
2019-05-22T16:06:15.412Z,14.20
2019-05-22T16:08:50.992Z,14.10
2019-05-22T16:11:27.644Z,14.00
2019-05-22T16:14:03.411Z,13.90
2019-05-22T16:16:37.908Z,13.90
2019-05-22T16:19:13.153Z,13.90
2019-05-22T16:21:48.557Z,13.90
2019-05-22T16:24:24.003Z,14.00
2019-05-22T16:26:58.520Z,14.00
2019-05-22T16:29:33.990Z,14.00
2019-05-22T16:32:10.227Z,14.00
2019-05-22T16:34:44.792Z,13.80
2019-05-22T16:37:19.196Z,13.70
2019-05-22T16:39:54.511Z,13.60
2019-05-22T16:42:30.473Z,13.50
2019-05-22T16:45:08.310Z,13.40
2019-05-22T16:47:43.283Z,13.30
2019-05-22T16:50:18.630Z,13.20
2019-05-22T16:52:54.180Z,13.10
2019-05-22T16:55:32.054Z,13.20
2019-05-22T16:58:06.828Z,13.10
2019-05-22T17:00:42.866Z,13.10
2019-05-22T17:03:18.274Z,13.10
2019-05-22T17:05:52.609Z,13.00
2019-05-22T17:08:28.892Z,12.90
2019-05-22T17:11:04.399Z,12.80
2019-05-22T17:13:39.492Z,12.90
2019-05-22T17:16:15.606Z,12.90
2019-05-22T17:18:49.948Z,13.00
2019-05-22T17:21:24.221Z,13.00
2019-05-22T17:23:59.385Z,13.00
2019-05-22T17:26:35.017Z,13.00
2019-05-22T17:29:12.030Z,13.10
2019-05-22T17:31:46.729Z,13.00
2019-05-22T17:34:35.422Z,12.90
2019-05-22T17:37:13.418Z,13.00
2019-05-22T17:39:49.347Z,12.90
2019-05-22T17:42:27.401Z,12.90
2019-05-22T17:45:03.051Z,12.80
2019-05-22T17:47:37.542Z,12.90
2019-05-22T17:50:26.146Z,12.80
2019-05-22T17:52:50.738Z,12.80
2019-05-22T17:55:26.819Z,12.80
2019-05-22T17:58:01.249Z,12.80
2019-05-22T18:00:37.575Z,12.70
2019-05-22T18:03:12.274Z,12.70
2019-05-22T18:05:47.339Z,12.70
2019-05-22T18:08:23.305Z,12.70
2019-05-22T18:10:58.988Z,12.60
2019-05-22T18:13:37.382Z,12.60
2019-05-22T18:16:11.749Z,12.60
2019-05-22T18:18:46.420Z,12.50
2019-05-22T18:21:20.992Z,12.50
2019-05-22T18:23:55.758Z,12.50
2019-05-22T18:26:30.533Z,12.50
2019-05-22T18:29:05.353Z,12.40
2019-05-22T18:31:40.515Z,12.40
2019-05-22T18:34:14.804Z,12.40
2019-05-22T18:36:49.101Z,12.40
2019-05-22T18:39:25.621Z,12.50
2019-05-22T18:41:59.948Z,12.50
2019-05-22T18:44:34.179Z,12.50
2019-05-22T18:47:10.127Z,12.50
2019-05-22T18:49:44.472Z,12.60
2019-05-22T18:52:19.590Z,12.50
2019-05-22T18:55:01.369Z,12.60
2019-05-22T18:57:51.384Z,12.50
2019-05-22T19:00:34.183Z,12.50
2019-05-22T19:03:08.767Z,12.50
2019-05-22T19:05:46.388Z,12.40
2019-05-22T19:08:20.738Z,12.40
2019-05-22T19:11:02.895Z,12.30
2019-05-22T19:13:37.230Z,12.30
2019-05-22T19:16:11.983Z,12.30
2019-05-22T19:18:54.035Z,12.20
2019-05-22T19:21:28.300Z,12.20
2019-05-22T19:24:02.678Z,12.20
2019-05-22T19:27:05.423Z,12.10
2019-05-22T19:29:39.793Z,12.10
2019-05-22T19:32:14.295Z,12.00
2019-05-22T19:34:51.951Z,11.90
2019-05-22T19:37:26.119Z,11.90
2019-05-22T19:40:06.402Z,11.80
2019-05-22T19:42:40.945Z,11.80
2019-05-22T19:45:19.309Z,11.70
2019-05-22T19:47:56.917Z,11.70
2019-05-22T19:50:35.716Z,11.60
2019-05-22T19:53:18.836Z,11.50
2019-05-22T19:55:46.948Z,11.50
2019-05-22T19:58:22.283Z,11.40
2019-05-22T20:01:06.611Z,11.40
2019-05-22T20:03:40.919Z,11.30
2019-05-22T20:06:38.185Z,11.30
2019-05-22T20:09:13.524Z,11.30
2019-05-22T20:11:48.236Z,11.30
2019-05-22T20:14:23.231Z,11.30
2019-05-22T20:17:01.413Z,11.30
2019-05-22T20:19:36.897Z,11.30
2019-05-22T20:22:13.001Z,11.30
2019-05-22T20:24:59.463Z,11.30
2019-05-22T20:27:34.109Z,11.30
2019-05-22T20:30:36.581Z,11.30
2019-05-22T20:33:11.486Z,11.30
2019-05-22T20:36:00.293Z,11.20
2019-05-22T20:38:34.882Z,11.20
2019-05-22T20:41:10.263Z,11.10
2019-05-22T20:43:45.889Z,11.10
2019-05-22T20:46:22.056Z,11.10
2019-05-22T20:49:00.779Z,11.00
2019-05-22T20:51:35.416Z,10.90
2019-05-22T20:54:13.327Z,10.90
2019-05-22T20:56:48.162Z,10.80
2019-05-22T20:59:25.176Z,10.70
2019-05-22T21:01:59.695Z,10.70
2019-05-22T21:04:38.519Z,10.60
2019-05-22T21:07:14.521Z,10.50
2019-05-22T21:09:51.165Z,10.50
2019-05-22T21:12:25.704Z,10.50
2019-05-22T21:15:00.072Z,10.50
2019-05-22T21:17:33.892Z,10.40
2019-05-22T21:20:09.676Z,10.40
2019-05-22T21:22:52.099Z,10.40
2019-05-22T21:25:26.919Z,10.40
2019-05-22T21:28:01.429Z,10.30
2019-05-22T21:30:40.583Z,10.30
2019-05-22T21:33:14.914Z,10.30
2019-05-22T21:35:48.515Z,10.30
2019-05-22T21:38:26.351Z,10.20
2019-05-22T21:41:00.125Z,10.20
2019-05-22T21:43:34.254Z,10.20
2019-05-22T21:46:08.714Z,10.20
2019-05-22T21:48:42.824Z,10.10
2019-05-22T21:51:17.682Z,10.10
2019-05-22T21:53:52.094Z,10.10
2019-05-22T21:56:25.903Z,10.00
2019-05-22T21:59:11.831Z,10.00
2019-05-22T22:01:48.095Z,10.00
2019-05-22T22:04:24.914Z,9.90
2019-05-22T22:07:05.908Z,9.90
2019-05-22T22:09:40.226Z,9.80
2019-05-22T22:12:17.288Z,9.80
2019-05-22T22:14:57.540Z,9.70
2019-05-22T22:17:32.455Z,9.70
2019-05-22T22:20:07.648Z,9.70
2019-05-22T22:22:49.150Z,9.70
2019-05-22T22:25:23.966Z,9.60
2019-05-22T22:27:58.531Z,9.60
2019-05-22T22:30:33.955Z,9.60
2019-05-22T22:33:09.429Z,9.60
2019-05-22T22:35:52.906Z,9.60
2019-05-22T22:38:27.924Z,9.50
2019-05-22T22:41:02.607Z,9.50
2019-05-22T22:43:39.629Z,9.40
2019-05-22T22:49:03.254Z,9.40
2019-05-22T22:51:50.391Z,9.30
2019-05-22T22:54:24.780Z,9.30
2019-05-22T22:57:00.115Z,9.20
2019-05-22T22:59:35.383Z,9.20
2019-05-22T23:02:15.606Z,9.10
2019-05-22T23:04:49.371Z,9.00
2019-05-22T23:07:33.867Z,9.00
2019-05-22T23:10:11.434Z,8.90
2019-05-22T23:12:45.143Z,8.90
2019-05-22T23:15:31.956Z,8.80
2019-05-22T23:18:06.387Z,8.80
2019-05-22T23:20:40.535Z,8.80
2019-05-22T23:23:13.957Z,8.70
2019-05-22T23:25:47.898Z,8.60
2019-05-22T23:28:34.159Z,8.60
2019-05-22T23:31:09.959Z,8.50
2019-05-22T23:33:44.118Z,8.50
2019-05-22T23:36:21.553Z,8.50
2019-05-22T23:38:58.038Z,8.50
2019-05-22T23:41:32.886Z,8.50
2019-05-22T23:44:09.227Z,8.40
2019-05-22T23:46:43.012Z,8.40
2019-05-22T23:49:16.957Z,8.30
2019-05-22T23:51:53.791Z,8.30
2019-05-22T23:54:28.682Z,8.30
2019-05-22T23:57:03.228Z,8.10
2019-05-22T23:59:39.605Z,8.00
